createdAt,value
2019-05-20T00:01:29.681Z,20.05
2019-05-20T00:03:56.984Z,20.20
2019-05-20T00:06:24.033Z,22.52
2019-05-20T00:08:51.448Z,19.85
2019-05-20T00:11:18.484Z,19.62
2019-05-20T00:13:45.820Z,20.25
2019-05-20T00:16:13.125Z,20.10
2019-05-20T00:18:41.556Z,20.10
2019-05-20T00:21:08.606Z,20.75
2019-05-20T00:23:35.666Z,18.67
2019-05-20T00:26:03.017Z,18.12
2019-05-20T00:28:31.389Z,17.77
2019-05-20T00:30:58.746Z,17.82
2019-05-20T00:33:26.050Z,16.48
2019-05-20T00:35:53.094Z,19.85
2019-05-20T00:38:20.411Z,15.72
2019-05-20T00:40:47.456Z,15.90
2019-05-20T00:43:14.761Z,16.95
2019-05-20T00:45:41.813Z,13.70
2019-05-20T00:48:09.127Z,14.80
2019-05-20T00:50:36.423Z,12.95
2019-05-20T00:53:03.777Z,12.47
2019-05-20T00:55:30.821Z,12.55
2019-05-20T00:57:57.878Z,13.25
2019-05-20T01:00:24.937Z,12.13
2019-05-20T01:02:56.855Z,11.20
2019-05-20T01:05:21.080Z,11.95
2019-05-20T01:07:48.384Z,10.78
2019-05-20T01:10:15.702Z,14.18
2019-05-20T01:12:43.057Z,10.03
2019-05-20T01:15:10.568Z,9.25
2019-05-20T01:17:37.603Z,10.00
2019-05-20T01:20:04.657Z,9.43
2019-05-20T01:22:31.790Z,8.70
2019-05-20T01:24:59.117Z,8.40
2019-05-20T01:27:26.158Z,7.55
2019-05-20T01:29:53.523Z,7.05
2019-05-20T01:32:20.569Z,7.97
2019-05-20T01:34:47.621Z,6.67
2019-05-20T01:37:14.966Z,6.45
2019-05-20T01:39:42.337Z,6.67
2019-05-20T01:42:09.698Z,6.15
2019-05-20T01:44:37.047Z,6.42
2019-05-20T01:47:04.308Z,7.30
2019-05-20T01:49:31.354Z,7.30
2019-05-20T01:51:58.686Z,7.22
2019-05-20T01:54:26.039Z,5.72
2019-05-20T01:56:53.320Z,6.12
2019-05-20T01:59:20.368Z,6.00
2019-05-20T02:01:47.715Z,8.03
2019-05-20T02:04:14.818Z,5.97
2019-05-20T02:06:42.100Z,7.17
2019-05-20T02:09:09.463Z,5.97
2019-05-20T02:11:36.718Z,5.80
2019-05-20T02:14:03.771Z,5.70
2019-05-20T02:16:31.225Z,5.85
2019-05-20T02:18:58.260Z,5.60
2019-05-20T02:21:25.616Z,5.60
2019-05-20T02:23:52.995Z,5.97
2019-05-20T02:26:20.308Z,5.25
2019-05-20T02:28:47.683Z,4.90
2019-05-20T02:31:14.741Z,6.15
2019-05-20T02:33:51.607Z,5.72
2019-05-20T02:36:11.189Z,5.45
2019-05-20T02:38:39.551Z,5.22
2019-05-20T02:41:06.857Z,4.22
2019-05-20T02:43:34.129Z,3.90
2019-05-20T02:46:01.437Z,5.95
2019-05-20T02:48:28.708Z,4.10
2019-05-20T02:50:55.761Z,4.58
2019-05-20T02:53:22.786Z,3.98
2019-05-20T02:55:49.846Z,6.65
2019-05-20T02:58:17.142Z,3.67
2019-05-20T03:00:44.442Z,4.20
2019-05-20T03:03:11.712Z,3.45
2019-05-20T03:05:39.006Z,3.58
2019-05-20T03:08:06.277Z,3.50
2019-05-20T03:10:33.399Z,3.62
2019-05-20T03:13:00.667Z,3.83
2019-05-20T03:15:27.966Z,3.42
2019-05-20T03:17:55.234Z,6.03
2019-05-20T03:20:22.532Z,4.17
2019-05-20T03:22:49.568Z,3.22
2019-05-20T03:25:16.883Z,13.60
2019-05-20T03:27:44.177Z,5.22
2019-05-20T03:30:11.563Z,4.00
2019-05-20T03:32:38.591Z,6.17
2019-05-20T03:35:05.658Z,5.75
2019-05-20T03:37:33.015Z,3.92
2019-05-20T03:40:00.053Z,4.30
2019-05-20T03:42:27.422Z,4.50
2019-05-20T03:44:54.770Z,5.37
2019-05-20T03:47:22.127Z,6.05
2019-05-20T03:49:49.582Z,4.78
2019-05-20T03:52:16.939Z,5.40
2019-05-20T03:54:43.969Z,5.55
2019-05-20T03:57:11.343Z,7.10
2019-05-20T03:59:38.379Z,8.25
2019-05-20T04:02:05.761Z,7.50
2019-05-20T04:04:33.108Z,8.40
2019-05-20T04:07:00.155Z,9.48
2019-05-20T04:09:27.502Z,9.18
2019-05-20T04:11:54.862Z,9.45
2019-05-20T04:17:08.717Z,12.55
2019-05-20T04:22:32.106Z,17.17
2019-05-20T04:24:59.457Z,16.57
2019-05-20T04:27:27.849Z,16.05
2019-05-20T04:29:55.959Z,17.92
2019-05-20T04:32:23.018Z,18.73
2019-05-20T04:34:50.413Z,18.82
2019-05-20T04:37:18.893Z,21.70
2019-05-20T04:39:46.307Z,21.85
2019-05-20T04:42:13.712Z,22.93
2019-05-20T04:44:40.752Z,23.38
2019-05-20T04:47:07.810Z,21.40
2019-05-20T04:49:35.162Z,25.88
2019-05-20T04:52:02.222Z,23.02
2019-05-20T04:54:29.576Z,27.58
2019-05-20T04:56:56.914Z,24.95
2019-05-20T04:59:24.267Z,25.10
2019-05-20T05:01:51.643Z,23.62
2019-05-20T05:04:20.109Z,24.57
2019-05-20T05:06:47.460Z,24.00
2019-05-20T05:09:26.004Z,27.90
2019-05-20T05:11:53.055Z,25.80
2019-05-20T05:14:20.106Z,27.90
2019-05-20T05:16:47.436Z,26.62
2019-05-20T05:19:14.723Z,30.05
2019-05-20T05:21:42.041Z,29.98
2019-05-20T05:24:09.100Z,27.93
2019-05-20T05:26:36.454Z,29.80
2019-05-20T05:29:03.515Z,29.23
2019-05-20T05:31:30.844Z,30.05
2019-05-20T05:33:58.199Z,34.35
2019-05-20T05:36:25.251Z,34.75
2019-05-20T05:38:52.310Z,33.25
2019-05-20T05:41:19.355Z,33.90
2019-05-20T05:43:46.427Z,35.92
2019-05-20T05:46:13.750Z,33.85
2019-05-20T05:48:41.116Z,32.45
2019-05-20T05:51:08.466Z,34.50
2019-05-20T05:53:35.809Z,36.25
2019-05-20T05:56:03.174Z,37.88
2019-05-20T05:58:30.543Z,34.43
2019-05-20T06:00:57.595Z,36.85
2019-05-20T06:03:24.929Z,40.35
2019-05-20T06:05:51.975Z,35.43
2019-05-20T06:08:19.192Z,37.33
2019-05-20T06:10:46.600Z,35.73
2019-05-20T06:13:14.789Z,37.95
2019-05-20T06:15:41.761Z,39.58
2019-05-20T06:18:08.815Z,40.55
2019-05-20T06:20:36.227Z,41.48
2019-05-20T06:23:03.560Z,38.45
2019-05-20T06:25:30.628Z,39.53
2019-05-20T06:27:57.983Z,39.70
2019-05-20T06:30:25.022Z,41.15
2019-05-20T06:32:52.341Z,39.78
2019-05-20T06:35:19.382Z,38.48
2019-05-20T06:37:46.423Z,37.88
2019-05-20T06:40:13.817Z,36.90
2019-05-20T06:42:40.866Z,41.10
2019-05-20T06:45:07.918Z,39.40
2019-05-20T06:47:35.266Z,38.42
2019-05-20T06:50:02.376Z,37.05
2019-05-20T06:52:35.905Z,39.00
2019-05-20T06:54:58.792Z,38.08
2019-05-20T06:57:26.122Z,38.88
2019-05-20T06:59:53.598Z,37.25
2019-05-20T07:02:22.081Z,38.25
2019-05-20T07:04:49.420Z,37.45
2019-05-20T07:07:21.042Z,38.65
2019-05-20T07:09:45.495Z,39.03
2019-05-20T07:12:12.812Z,36.88
2019-05-20T07:14:39.864Z,36.53
2019-05-20T07:17:06.907Z,35.05
2019-05-20T07:19:34.041Z,34.92
2019-05-20T07:22:01.517Z,34.85
2019-05-20T07:24:28.914Z,36.05
2019-05-20T07:26:56.227Z,34.25
2019-05-20T07:29:23.580Z,32.93
2019-05-20T07:31:50.963Z,32.38
2019-05-20T07:34:18.353Z,30.70
2019-05-20T07:37:01.479Z,31.70
2019-05-20T07:39:14.393Z,31.62
2019-05-20T07:41:42.011Z,32.30
2019-05-20T07:44:09.453Z,30.72
2019-05-20T07:46:36.490Z,31.82
2019-05-20T07:49:03.980Z,30.23
2019-05-20T07:51:31.313Z,28.02
2019-05-20T07:53:58.412Z,27.95
2019-05-20T07:56:25.739Z,27.02
2019-05-20T07:58:52.805Z,27.93
2019-05-20T08:01:20.125Z,26.97
2019-05-20T08:03:47.476Z,25.32
2019-05-20T08:06:14.830Z,24.98
2019-05-20T08:08:42.195Z,24.15
2019-05-20T08:11:09.248Z,24.12
2019-05-20T08:13:36.296Z,21.95
2019-05-20T08:16:03.651Z,24.37
2019-05-20T08:18:31.091Z,24.65
2019-05-20T08:20:58.454Z,22.82
2019-05-20T08:23:25.804Z,22.93
2019-05-20T08:25:53.175Z,22.32
2019-05-20T08:28:20.521Z,21.60
2019-05-20T08:30:47.891Z,21.87
2019-05-20T08:33:15.224Z,21.30
2019-05-20T08:35:42.598Z,20.57
2019-05-20T08:38:09.974Z,22.67
2019-05-20T08:40:37.036Z,21.65
2019-05-20T08:43:04.081Z,21.45
2019-05-20T08:45:31.385Z,20.27
2019-05-20T08:47:58.812Z,21.50
2019-05-20T08:50:25.897Z,19.42
2019-05-20T08:52:53.314Z,21.85
2019-05-20T08:55:20.721Z,22.45
2019-05-20T08:57:48.102Z,22.37
2019-05-20T09:00:15.438Z,22.80
2019-05-20T09:02:42.483Z,24.45
2019-05-20T09:05:10.588Z,23.47
2019-05-20T09:07:37.906Z,22.73
2019-05-20T09:10:04.964Z,24.20
2019-05-20T09:12:33.169Z,21.30
2019-05-20T09:15:00.314Z,22.45
2019-05-20T09:17:27.354Z,21.52
2019-05-20T09:19:54.663Z,20.10
2019-05-20T09:22:22.023Z,19.48
2019-05-20T09:24:49.469Z,18.92
2019-05-20T09:27:18.592Z,20.00
2019-05-20T09:29:46.155Z,17.73
2019-05-20T09:32:13.211Z,17.95
2019-05-20T09:34:40.277Z,19.02
2019-05-20T09:37:07.700Z,19.40
2019-05-20T09:39:34.904Z,18.35
2019-05-20T09:42:01.957Z,18.23
2019-05-20T09:44:29.360Z,21.75
2019-05-20T09:46:56.416Z,18.25
2019-05-20T09:49:23.474Z,17.85
2019-05-20T09:51:50.810Z,17.20
2019-05-20T09:54:17.857Z,17.95
2019-05-20T09:56:44.914Z,18.67
2019-05-20T09:59:15.782Z,18.75
2019-05-20T10:01:41.108Z,17.60
2019-05-20T10:04:08.400Z,18.48
2019-05-20T10:06:35.746Z,19.67
2019-05-20T10:09:03.098Z,21.62
2019-05-20T10:11:31.330Z,20.52
2019-05-20T10:13:58.746Z,21.85
2019-05-20T10:16:25.804Z,20.95
2019-05-20T10:18:55.287Z,22.67
2019-05-20T10:21:21.604Z,26.82
2019-05-20T10:23:48.652Z,24.07
2019-05-20T10:26:16.033Z,25.95
2019-05-20T10:28:47.159Z,25.77
2019-05-20T10:31:12.180Z,26.68
2019-05-20T10:33:39.225Z,25.45
2019-05-20T10:36:06.273Z,26.37
2019-05-20T10:38:33.328Z,24.67
2019-05-20T10:41:00.384Z,26.55
2019-05-20T10:43:27.432Z,28.47
2019-05-20T10:45:54.740Z,28.55
2019-05-20T10:48:21.801Z,28.45
2019-05-20T10:50:49.163Z,31.40
2019-05-20T10:53:16.218Z,29.32
2019-05-20T10:55:43.565Z,32.93
2019-05-20T10:58:10.920Z,32.80
2019-05-20T11:00:38.287Z,34.35
2019-05-20T11:03:05.653Z,32.58
2019-05-20T11:05:32.743Z,34.38
2019-05-20T11:07:59.796Z,35.48
2019-05-20T11:10:26.835Z,35.83
2019-05-20T11:12:53.904Z,38.05
2019-05-20T11:15:21.277Z,39.92
2019-05-20T11:17:48.631Z,39.25
2019-05-20T11:20:16.007Z,41.55
2019-05-20T11:22:43.045Z,41.63
2019-05-20T11:25:10.409Z,41.48
2019-05-20T11:27:37.751Z,42.45
2019-05-20T11:30:04.827Z,46.30
2019-05-20T11:32:32.253Z,46.68
2019-05-20T11:34:59.311Z,45.33
2019-05-20T11:37:26.615Z,45.78
2019-05-20T11:39:53.663Z,45.35
2019-05-20T11:42:20.726Z,51.48
2019-05-20T11:44:48.126Z,49.27
2019-05-20T11:47:15.167Z,51.65
2019-05-20T11:49:42.467Z,48.68
2019-05-20T11:52:09.863Z,49.58
2019-05-20T11:54:36.931Z,52.75
2019-05-20T11:57:03.978Z,53.10
2019-05-20T11:59:31.311Z,51.55
2019-05-20T12:01:58.382Z,54.75
2019-05-20T12:04:25.741Z,51.37
2019-05-20T12:06:53.090Z,52.20
2019-05-20T12:09:20.436Z,50.23
2019-05-20T12:11:47.787Z,55.85
2019-05-20T12:14:14.838Z,54.40
2019-05-20T12:16:41.883Z,54.48
2019-05-20T12:19:08.931Z,59.40
2019-05-20T12:21:35.975Z,54.35
2019-05-20T12:24:03.074Z,51.58
2019-05-20T12:26:30.592Z,58.25
2019-05-20T12:28:57.940Z,52.73
2019-05-20T12:31:25.228Z,53.20
2019-05-20T12:33:52.560Z,60.03
2019-05-20T12:36:19.607Z,59.15
2019-05-20T12:38:46.962Z,61.00
2019-05-20T12:41:14.299Z,66.25
2019-05-20T12:43:45.047Z,62.53
2019-05-20T12:46:11.586Z,59.23
2019-05-20T12:48:39.056Z,63.25
2019-05-20T12:51:06.093Z,67.17
2019-05-20T12:53:33.433Z,67.53
2019-05-20T12:56:00.789Z,68.17
2019-05-20T12:58:28.162Z,67.25
2019-05-20T13:00:55.207Z,65.57
2019-05-20T13:03:22.638Z,71.85
2019-05-20T13:05:49.872Z,75.52
2019-05-20T13:08:17.261Z,66.97
2019-05-20T13:10:44.628Z,66.85
2019-05-20T13:13:11.983Z,68.33
2019-05-20T13:15:39.319Z,63.73
2019-05-20T13:18:06.700Z,68.42
2019-05-20T13:20:34.033Z,61.05
2019-05-20T13:23:03.094Z,61.37
2019-05-20T13:25:31.199Z,59.80
2019-05-20T13:27:58.574Z,59.20
2019-05-20T13:30:25.635Z,59.58
2019-05-20T13:32:52.955Z,56.90
2019-05-20T13:35:20.013Z,57.50
2019-05-20T13:37:47.468Z,57.30
2019-05-20T13:40:14.527Z,54.65
2019-05-20T13:42:41.571Z,55.98
2019-05-20T13:45:08.652Z,58.65
2019-05-20T13:47:35.970Z,58.20
2019-05-20T13:50:03.316Z,57.08
2019-05-20T13:52:30.614Z,56.53
2019-05-20T13:54:58.778Z,57.73
2019-05-20T13:57:25.813Z,57.73
2019-05-20T13:59:53.150Z,59.63
2019-05-20T14:02:20.198Z,60.48
2019-05-20T14:04:47.547Z,55.38
2019-05-20T14:07:14.904Z,58.28
2019-05-20T14:09:42.295Z,52.93
2019-05-20T14:12:09.614Z,54.08
2019-05-20T14:14:36.972Z,55.38
2019-05-20T14:17:04.017Z,55.98
2019-05-20T14:19:31.377Z,59.48
2019-05-20T14:21:58.737Z,56.88
2019-05-20T14:24:25.808Z,60.70
2019-05-20T14:26:53.139Z,56.18
2019-05-20T14:29:20.184Z,63.50
2019-05-20T14:31:47.313Z,62.00
2019-05-20T14:34:14.809Z,63.02
2019-05-20T14:36:41.861Z,63.05
2019-05-20T14:39:09.193Z,60.55
2019-05-20T14:41:36.278Z,59.33
2019-05-20T14:44:03.610Z,65.67
2019-05-20T14:46:30.916Z,67.32
2019-05-20T14:49:02.465Z,64.50
2019-05-20T14:51:28.079Z,66.87
2019-05-20T14:53:55.472Z,64.32
2019-05-20T14:56:22.825Z,64.40
2019-05-20T14:58:50.182Z,66.57
2019-05-20T15:01:17.557Z,62.50
2019-05-20T15:03:44.915Z,61.20
2019-05-20T15:06:18.083Z,64.45
2019-05-20T15:08:45.131Z,62.58
2019-05-20T15:11:16.023Z,58.38
2019-05-20T15:13:43.340Z,61.40
2019-05-20T15:16:10.681Z,64.40
2019-05-20T15:18:38.036Z,67.80
2019-05-20T15:21:05.447Z,65.37
2019-05-20T15:23:32.507Z,67.15
2019-05-20T15:25:59.901Z,69.65
2019-05-20T15:28:27.271Z,70.40
2019-05-20T15:30:54.606Z,64.03
2019-05-20T15:33:21.720Z,62.43
2019-05-20T15:35:50.234Z,74.65
2019-05-20T15:38:18.269Z,70.75
2019-05-20T15:40:45.678Z,67.45
2019-05-20T15:43:12.714Z,65.15
2019-05-20T15:45:40.071Z,69.53
2019-05-20T15:48:07.421Z,62.27
2019-05-20T15:50:34.460Z,59.60
2019-05-20T15:53:03.170Z,64.50
2019-05-20T15:55:38.840Z,60.75
2019-05-20T16:00:48.933Z,64.65
2019-05-20T16:03:16.159Z,76.12
2019-05-20T16:05:52.547Z,95.20
2019-05-20T16:08:20.060Z,63.38
2019-05-20T16:10:57.039Z,73.65
2019-05-20T16:21:26.966Z,71.55
2019-05-20T16:24:02.186Z,77.30
2019-05-20T16:31:55.291Z,69.37
2019-05-20T16:34:23.211Z,57.88
2019-05-20T16:36:51.436Z,65.65
2019-05-20T16:39:20.895Z,59.27
2019-05-20T16:41:48.359Z,44.20
2019-05-20T16:44:23.820Z,44.05
2019-05-20T16:49:27.224Z,43.80
2019-05-20T16:54:49.297Z,56.20
2019-05-20T17:02:27.421Z,62.53
2019-05-20T17:05:02.740Z,65.28
2019-05-20T17:07:33.956Z,64.92
2019-05-20T17:10:01.763Z,59.98
2019-05-20T17:15:08.262Z,62.20
2019-05-20T17:17:37.484Z,58.52
2019-05-20T17:20:05.404Z,54.30
2019-05-20T17:22:32.803Z,52.73
2019-05-20T17:25:10.107Z,53.05
2019-05-20T17:30:29.338Z,49.75
2019-05-20T17:33:00.994Z,60.25
2019-05-20T17:41:14.793Z,66.87
2019-05-20T17:46:38.178Z,66.45
2019-05-20T17:49:07.486Z,65.95
2019-05-20T17:54:28.141Z,71.12
2019-05-20T17:59:50.684Z,71.40
2019-05-20T18:02:17.745Z,78.12
2019-05-20T18:04:49.611Z,78.02
2019-05-20T18:07:19.056Z,75.25
2019-05-20T18:09:46.511Z,73.52
2019-05-20T18:12:28.077Z,75.42
2019-05-20T18:20:25.034Z,70.67
2019-05-20T18:23:07.428Z,74.85
2019-05-20T18:25:35.051Z,79.17
2019-05-20T18:30:54.755Z,73.83
2019-05-20T18:33:25.426Z,78.55
2019-05-20T18:36:00.825Z,76.45
2019-05-20T18:43:48.845Z,76.55
2019-05-20T18:46:25.468Z,81.02
2019-05-20T18:54:27.437Z,82.75
2019-05-20T18:56:55.673Z,86.08
2019-05-20T19:02:05.932Z,97.50
2019-05-20T19:04:35.649Z,95.07
2019-05-20T19:07:02.819Z,100.10
2019-05-20T19:09:30.334Z,109.90
2019-05-20T19:11:58.120Z,100.50
2019-05-20T19:14:25.692Z,104.32
2019-05-20T19:16:55.164Z,103.85
2019-05-20T19:19:22.724Z,110.10
2019-05-20T19:21:50.388Z,116.57
2019-05-20T19:24:17.843Z,110.60
2019-05-20T19:26:45.507Z,113.40
2019-05-20T19:29:13.286Z,97.72
2019-05-20T19:31:40.832Z,108.37
2019-05-20T19:34:08.601Z,107.03
2019-05-20T19:36:35.796Z,116.88
2019-05-20T19:39:03.514Z,107.58
2019-05-20T19:41:32.348Z,105.12
2019-05-20T19:43:59.684Z,109.75
2019-05-20T19:46:27.273Z,101.07
2019-05-20T19:48:57.170Z,105.35
2019-05-20T19:51:24.843Z,109.03
2019-05-20T19:53:52.124Z,116.08
2019-05-20T19:56:20.374Z,93.30
2019-05-20T19:58:47.804Z,97.80
2019-05-20T20:01:20.001Z,92.70
2019-05-20T20:03:47.062Z,96.75
2019-05-20T20:06:14.313Z,85.45
2019-05-20T20:08:42.562Z,85.45
2019-05-20T20:11:10.759Z,82.60
2019-05-20T20:13:41.714Z,68.65
2019-05-20T20:16:09.320Z,73.35
2019-05-20T20:18:36.967Z,83.22
2019-05-20T20:21:09.278Z,73.17
2019-05-20T20:23:38.796Z,69.90
2019-05-20T20:26:11.267Z,74.37
2019-05-20T20:28:44.934Z,61.55
2019-05-20T20:33:47.615Z,54.75
2019-05-20T20:41:34.315Z,43.52
2019-05-20T20:44:03.030Z,47.50
2019-05-20T20:46:30.087Z,35.33
2019-05-20T20:48:57.895Z,39.70
2019-05-20T20:51:24.927Z,37.88
2019-05-20T20:53:53.388Z,41.42
2019-05-20T20:56:25.204Z,46.05
2019-05-20T20:58:49.843Z,50.88
2019-05-20T21:01:21.438Z,55.05
2019-05-20T21:03:48.747Z,49.65
2019-05-20T21:06:16.114Z,52.70
2019-05-20T21:08:43.473Z,55.90
2019-05-20T21:11:10.826Z,49.70
2019-05-20T21:13:38.191Z,57.08
2019-05-20T21:16:05.523Z,52.40
2019-05-20T21:21:19.380Z,53.33
2019-05-20T21:23:46.735Z,59.50
2019-05-20T21:26:13.793Z,53.78
2019-05-20T21:28:45.339Z,60.45
2019-05-20T21:31:12.393Z,60.50
2019-05-20T21:33:39.739Z,62.08
2019-05-20T21:36:07.117Z,63.40
2019-05-20T21:38:34.159Z,60.38
2019-05-20T21:41:01.523Z,53.15
2019-05-20T21:43:28.964Z,58.90
2019-05-20T21:45:56.312Z,57.88
2019-05-20T21:48:23.667Z,58.02
2019-05-20T21:50:50.713Z,59.25
2019-05-20T21:53:18.081Z,59.00
2019-05-20T21:55:45.200Z,61.42
2019-05-20T21:58:12.496Z,63.73
2019-05-20T22:00:39.537Z,62.27
2019-05-20T22:03:07.189Z,58.35
2019-05-20T22:05:34.541Z,59.95
2019-05-20T22:08:04.120Z,64.50
2019-05-20T22:10:36.857Z,62.35
2019-05-20T22:13:04.200Z,58.10
2019-05-20T22:15:31.535Z,58.33
2019-05-20T22:17:58.913Z,58.83
2019-05-20T22:20:25.972Z,57.17
2019-05-20T22:22:53.023Z,57.33
2019-05-20T22:25:20.365Z,54.35
2019-05-20T22:27:47.716Z,60.05
2019-05-20T22:30:14.763Z,55.90
2019-05-20T22:32:42.105Z,52.90
2019-05-20T22:35:09.146Z,66.30
2019-05-20T22:37:36.271Z,61.33
2019-05-20T22:40:03.315Z,64.82
2019-05-20T22:42:30.719Z,66.22
2019-05-20T22:44:57.760Z,68.52
2019-05-20T22:50:07.828Z,68.20
2019-05-20T22:52:35.196Z,65.00
2019-05-20T22:55:02.532Z,69.45
2019-05-20T22:57:31.034Z,66.02
2019-05-20T22:59:59.393Z,69.58
2019-05-20T23:02:26.454Z,72.97
2019-05-20T23:04:53.811Z,73.60
2019-05-20T23:07:21.161Z,70.28
2019-05-20T23:09:48.427Z,72.50
2019-05-20T23:12:16.779Z,70.28
2019-05-20T23:14:44.074Z,74.15
2019-05-20T23:17:11.172Z,72.27
2019-05-20T23:19:39.333Z,60.10
2019-05-20T23:22:06.375Z,59.98
2019-05-20T23:24:33.779Z,61.75
2019-05-20T23:27:01.068Z,55.67
2019-05-20T23:29:28.368Z,57.67
2019-05-20T23:31:55.409Z,54.33
2019-05-20T23:34:23.711Z,59.80
2019-05-20T23:36:50.758Z,55.55
2019-05-20T23:39:18.100Z,54.30
2019-05-20T23:41:56.132Z,60.28
2019-05-20T23:44:23.486Z,54.03
2019-05-20T23:46:50.765Z,55.08
2019-05-20T23:49:17.860Z,59.88
2019-05-20T23:51:45.215Z,63.58
2019-05-20T23:54:12.581Z,62.20
2019-05-20T23:56:39.622Z,56.33
2019-05-20T23:59:06.685Z,61.15
